NKS8524 KFLL-KEYW
Flight info
| Callsign | NKS8524 |
|---|---|
| Flight time | N/A |
| Altitude | 20000 |
| Route | MAYNR3 MAYNR FNTSY FNTSY1 |
| Aircraft | A320/M-SDE3FGHIRWY/LB1 |
Departure
| Time | 2026-05-03 21:32 |
|---|---|
| Airport | Fort Lauderdale Hollywood International Airport (KFLL) |
Arrival
| Time | N/A |
|---|---|
| Airport | Key West International Airport (KEYW) |
| Time | Latitude | Longitude | Altitude | Speed | Heading |
|---|---|---|---|---|---|
| 2026-05-03 20:46 | 26.06882 | -80.14341 | 16 ft | 0 kts | 359° |
| 2026-05-03 20:57 | 26.06863 | -80.14341 | 17 ft | 4 kts | 354° |
| 2026-05-03 20:57 | 26.06837 | -80.14335 | 19 ft | 4 kts | 335° |
| 2026-05-03 20:57 | 26.06819 | -80.14319 | 16 ft | 4 kts | 284° |
| 2026-05-03 20:58 | 26.06817 | -80.14308 | 16 ft | 1 kts | 271° |
| 2026-05-03 20:58 | 26.06817 | -80.14307 | 16 ft | 0 kts | 271° |
| 2026-05-03 21:01 | 26.06817 | -80.14332 | 16 ft | 8 kts | 271° |
| 2026-05-03 21:01 | 26.06818 | -80.14368 | 16 ft | 0 kts | 271° |
| 2026-05-03 21:03 | 26.06818 | -80.14391 | 16 ft | 6 kts | 270° |
| 2026-05-03 21:03 | 26.06818 | -80.14409 | 16 ft | 1 kts | 270° |
| 2026-05-03 21:05 | 26.06818 | -80.14412 | 16 ft | 1 kts | 270° |
| 2026-05-03 21:05 | 26.06818 | -80.14417 | 16 ft | 0 kts | 270° |
| 2026-05-03 21:07 | 26.06818 | -80.14429 | 16 ft | 6 kts | 270° |
| 2026-05-03 21:07 | 26.06818 | -80.14524 | 16 ft | 16 kts | 269° |
| 2026-05-03 21:08 | 26.06769 | -80.14631 | 15 ft | 17 kts | 259° |
| 2026-05-03 21:08 | 26.06766 | -80.14770 | 15 ft | 19 kts | 269° |
| 2026-05-03 21:08 | 26.06768 | -80.14927 | 15 ft | 18 kts | 270° |
| 2026-05-03 21:08 | 26.06768 | -80.15032 | 16 ft | 12 kts | 270° |
| 2026-05-03 21:09 | 26.06747 | -80.15127 | 17 ft | 13 kts | 221° |
| 2026-05-03 21:09 | 26.06695 | -80.15188 | 23 ft | 11 kts | 262° |
| 2026-05-03 21:09 | 26.06696 | -80.15291 | 16 ft | 17 kts | 271° |
| 2026-05-03 21:09 | 26.06697 | -80.15437 | 16 ft | 20 kts | 270° |
| 2026-05-03 21:10 | 26.06697 | -80.15534 | 16 ft | 0 kts | 269° |
| 2026-05-03 21:10 | 26.06697 | -80.15538 | 16 ft | 0 kts | 269° |
| 2026-05-03 21:12 | 26.06697 | -80.15548 | 16 ft | 4 kts | 269° |
| 2026-05-03 21:12 | 26.06697 | -80.15589 | 16 ft | 0 kts | 270° |
| 2026-05-03 21:13 | 26.06697 | -80.15592 | 16 ft | 0 kts | 270° |
| 2026-05-03 21:13 | 26.06697 | -80.15595 | 16 ft | 3 kts | 270° |
| 2026-05-03 21:13 | 26.06697 | -80.15600 | 16 ft | 0 kts | 270° |
| 2026-05-03 21:14 | 26.06697 | -80.15602 | 16 ft | 1 kts | 270° |
| 2026-05-03 21:14 | 26.06697 | -80.15611 | 16 ft | 0 kts | 271° |
| 2026-05-03 21:14 | 26.06697 | -80.15612 | 16 ft | 0 kts | 271° |
| 2026-05-03 21:19 | 26.06698 | -80.15624 | 16 ft | 5 kts | 271° |
| 2026-05-03 21:19 | 26.06698 | -80.15648 | 16 ft | 0 kts | 270° |
| 2026-05-03 21:19 | 26.06698 | -80.15661 | 16 ft | 0 kts | 270° |
| 2026-05-03 21:22 | 26.06698 | -80.15662 | 16 ft | 1 kts | 270° |
| 2026-05-03 21:23 | 26.06698 | -80.15679 | 16 ft | 0 kts | 270° |
| 2026-05-03 21:23 | 26.06698 | -80.15685 | 16 ft | 1 kts | 270° |
| 2026-05-03 21:27 | 26.06698 | -80.15688 | 16 ft | 0 kts | 270° |
| 2026-05-03 21:28 | 26.06698 | -80.15704 | 17 ft | 4 kts | 270° |
| 2026-05-03 21:28 | 26.06698 | -80.15753 | 16 ft | 4 kts | 270° |
| 2026-05-03 21:28 | 26.06698 | -80.15760 | 16 ft | 0 kts | 270° |
| 2026-05-03 21:29 | 26.06698 | -80.15767 | 16 ft | 0 kts | 269° |
| 2026-05-03 21:29 | 26.06694 | -80.15792 | 16 ft | 7 kts | 252° |
| 2026-05-03 21:29 | 26.06682 | -80.15810 | 17 ft | 0 kts | 225° |
| 2026-05-03 21:30 | 26.06674 | -80.15815 | 17 ft | 4 kts | 207° |
| 2026-05-03 21:30 | 26.06627 | -80.15818 | 17 ft | 9 kts | 164° |
| 2026-05-03 21:30 | 26.06589 | -80.15755 | 19 ft | 12 kts | 95° |
| 2026-05-03 21:31 | 26.06589 | -80.15743 | 20 ft | 0 kts | 92° |
| 2026-05-03 21:31 | 26.06589 | -80.15742 | 20 ft | 2 kts | 92° |
| 2026-05-03 21:32 | 26.06588 | -80.15470 | 23 ft | 74 kts | 89° |
| 2026-05-03 21:32 | 26.06584 | -80.14646 | 34 ft | 134 kts | 89° |
| 2026-05-03 21:32 | 26.06576 | -80.13491 | 359 ft | 155 kts | 90° |
| 2026-05-03 21:32 | 26.06569 | -80.12287 | 1048 ft | 156 kts | 86° |
| 2026-05-03 21:33 | 26.06592 | -80.11100 | 1708 ft | 157 kts | 86° |
| 2026-05-03 21:33 | 26.06618 | -80.09832 | 2116 ft | 174 kts | 87° |
| 2026-05-03 21:33 | 26.06645 | -80.08401 | 2417 ft | 196 kts | 88° |
| 2026-05-03 21:33 | 26.06670 | -80.06795 | 2698 ft | 220 kts | 89° |
| 2026-05-03 21:34 | 26.06691 | -80.04995 | 3029 ft | 246 kts | 89° |
| 2026-05-03 21:34 | 26.06709 | -80.03002 | 3516 ft | 268 kts | 89° |
| 2026-05-03 21:34 | 26.06726 | -80.00872 | 3912 ft | 280 kts | 90° |
| 2026-05-03 21:34 | 26.06755 | -79.98699 | 3997 ft | 281 kts | 89° |
| 2026-05-03 21:35 | 26.06813 | -79.96533 | 4000 ft | 281 kts | 89° |
| 2026-05-03 21:35 | 26.06869 | -79.94357 | 4003 ft | 282 kts | 89° |
| 2026-05-03 21:35 | 26.06916 | -79.92180 | 4003 ft | 281 kts | 89° |
| 2026-05-03 21:35 | 26.06963 | -79.90036 | 4000 ft | 280 kts | 89° |
| 2026-05-03 21:36 | 26.07011 | -79.87865 | 4002 ft | 281 kts | 89° |
| 2026-05-03 21:36 | 26.07064 | -79.85688 | 4002 ft | 282 kts | 88° |
| 2026-05-03 21:36 | 26.07107 | -79.83512 | 4000 ft | 281 kts | 92° |
| 2026-05-03 21:36 | 26.06654 | -79.81423 | 4001 ft | 279 kts | 120° |
| 2026-05-03 21:37 | 26.05407 | -79.79816 | 3997 ft | 275 kts | 148° |
| 2026-05-03 21:37 | 26.03673 | -79.79015 | 3998 ft | 270 kts | 169° |
| 2026-05-03 21:37 | 26.01832 | -79.78593 | 3998 ft | 270 kts | 172° |
| 2026-05-03 21:37 | 25.99986 | -79.78216 | 3993 ft | 270 kts | 172° |
| 2026-05-03 21:38 | 25.98139 | -79.77846 | 3994 ft | 270 kts | 172° |
| 2026-05-03 21:38 | 25.96286 | -79.77477 | 4002 ft | 271 kts | 172° |
| 2026-05-03 21:38 | 25.94435 | -79.77104 | 3992 ft | 270 kts | 172° |
| 2026-05-03 21:38 | 25.92589 | -79.76737 | 3993 ft | 270 kts | 172° |
| 2026-05-03 21:39 | 25.90765 | -79.76375 | 3995 ft | 270 kts | 172° |
| 2026-05-03 21:39 | 25.88908 | -79.76103 | 3988 ft | 268 kts | 184° |
| 2026-05-03 21:39 | 25.87116 | -79.76530 | 3994 ft | 263 kts | 207° |
| 2026-05-03 21:39 | 25.85581 | -79.77601 | 3996 ft | 261 kts | 217° |
| 2026-05-03 21:40 | 25.84094 | -79.78761 | 3995 ft | 262 kts | 217° |
| 2026-05-03 21:40 | 25.82607 | -79.79925 | 4000 ft | 261 kts | 217° |
| 2026-05-03 21:40 | 25.81120 | -79.81088 | 3996 ft | 262 kts | 217° |
| 2026-05-03 21:40 | 25.79633 | -79.82251 | 3995 ft | 262 kts | 217° |
| 2026-05-03 21:41 | 25.78146 | -79.83414 | 3993 ft | 261 kts | 217° |
| 2026-05-03 21:41 | 25.76659 | -79.84576 | 3992 ft | 262 kts | 217° |
| 2026-05-03 21:41 | 25.75172 | -79.85736 | 3992 ft | 261 kts | 217° |
| 2026-05-03 21:41 | 25.73684 | -79.86896 | 3992 ft | 261 kts | 217° |
| 2026-05-03 21:42 | 25.72218 | -79.88039 | 3992 ft | 261 kts | 217° |
| 2026-05-03 21:42 | 25.70732 | -79.89196 | 3992 ft | 262 kts | 217° |
| 2026-05-03 21:42 | 25.69242 | -79.90354 | 3992 ft | 262 kts | 217° |
| 2026-05-03 21:42 | 25.67752 | -79.91511 | 3993 ft | 262 kts | 217° |
| 2026-05-03 21:43 | 25.66257 | -79.92670 | 3993 ft | 262 kts | 217° |
| 2026-05-03 21:43 | 25.64765 | -79.93825 | 3993 ft | 262 kts | 217° |
| 2026-05-03 21:43 | 25.63273 | -79.94982 | 3993 ft | 261 kts | 217° |
| 2026-05-03 21:43 | 25.61784 | -79.96140 | 3993 ft | 261 kts | 217° |
| 2026-05-03 21:44 | 25.60299 | -79.97296 | 3990 ft | 261 kts | 217° |
| 2026-05-03 21:44 | 25.58812 | -79.98454 | 3993 ft | 261 kts | 216° |
| 2026-05-03 21:44 | 25.57320 | -79.99613 | 3992 ft | 262 kts | 216° |
| 2026-05-03 21:44 | 25.55846 | -80.00754 | 3993 ft | 262 kts | 216° |
| 2026-05-03 21:45 | 25.54349 | -80.01913 | 3994 ft | 262 kts | 216° |
| 2026-05-03 21:45 | 25.52853 | -80.03072 | 3992 ft | 263 kts | 217° |
| 2026-05-03 21:45 | 25.51357 | -80.04234 | 3993 ft | 262 kts | 216° |
| 2026-05-03 21:45 | 25.49861 | -80.05392 | 3993 ft | 262 kts | 216° |
| 2026-05-03 21:46 | 25.48367 | -80.06549 | 3995 ft | 262 kts | 216° |
| 2026-05-03 21:46 | 25.46872 | -80.07707 | 3994 ft | 262 kts | 217° |
| 2026-05-03 21:46 | 25.45382 | -80.08865 | 3995 ft | 262 kts | 216° |
| 2026-05-03 21:46 | 25.43887 | -80.10024 | 3995 ft | 263 kts | 216° |
| 2026-05-03 21:47 | 25.42363 | -80.11204 | 4570 ft | 270 kts | 216° |
| 2026-05-03 21:47 | 25.40841 | -80.12380 | 5756 ft | 265 kts | 217° |
| 2026-05-03 21:47 | 25.39346 | -80.13532 | 6775 ft | 266 kts | 217° |
| 2026-05-03 21:47 | 25.37822 | -80.14709 | 7693 ft | 269 kts | 217° |
| 2026-05-03 21:48 | 25.36277 | -80.15901 | 8597 ft | 273 kts | 217° |
| 2026-05-03 21:48 | 25.34713 | -80.17107 | 9503 ft | 276 kts | 217° |
| 2026-05-03 21:48 | 25.33127 | -80.18330 | 10281 ft | 283 kts | 218° |
| 2026-05-03 21:48 | 25.31444 | -80.19634 | 10601 ft | 307 kts | 217° |
| 2026-05-03 21:49 | 25.29633 | -80.21038 | 10916 ft | 327 kts | 217° |
| 2026-05-03 21:49 | 25.27743 | -80.22500 | 11523 ft | 335 kts | 217° |
| 2026-05-03 21:49 | 25.25821 | -80.23980 | 12242 ft | 339 kts | 217° |
| 2026-05-03 21:49 | 25.23876 | -80.25473 | 12971 ft | 342 kts | 217° |
| 2026-05-03 21:50 | 25.21910 | -80.26984 | 13688 ft | 346 kts | 217° |
| 2026-05-03 21:50 | 25.19925 | -80.28511 | 14322 ft | 349 kts | 217° |
| 2026-05-03 21:50 | 25.17954 | -80.30028 | 14945 ft | 352 kts | 217° |
| 2026-05-03 21:50 | 25.15940 | -80.31578 | 15587 ft | 354 kts | 217° |
| 2026-05-03 21:51 | 25.13912 | -80.33142 | 16222 ft | 356 kts | 217° |
| 2026-05-03 21:51 | 25.11871 | -80.34712 | 16858 ft | 359 kts | 217° |
| 2026-05-03 21:51 | 25.09816 | -80.36290 | 17478 ft | 362 kts | 218° |
| 2026-05-03 21:51 | 25.07741 | -80.37881 | 18113 ft | 364 kts | 218° |
| 2026-05-03 21:52 | 25.05652 | -80.39482 | 18685 ft | 367 kts | 218° |
| 2026-05-03 21:52 | 25.03553 | -80.41093 | 19243 ft | 369 kts | 218° |
| 2026-05-03 21:52 | 25.01441 | -80.42715 | 19750 ft | 371 kts | 218° |
| 2026-05-03 21:52 | 24.99314 | -80.44347 | 19953 ft | 373 kts | 218° |
| 2026-05-03 21:53 | 24.97189 | -80.45978 | 20011 ft | 385 kts | 218° |
| 2026-05-03 21:53 | 24.94959 | -80.47692 | 20017 ft | 395 kts | 218° |
| 2026-05-03 21:53 | 24.92694 | -80.49428 | 20016 ft | 397 kts | 218° |
| 2026-05-03 21:53 | 24.90421 | -80.51164 | 20016 ft | 398 kts | 217° |
| 2026-05-03 21:54 | 24.88142 | -80.52904 | 20016 ft | 398 kts | 217° |
| 2026-05-03 21:54 | 24.85899 | -80.54687 | 20016 ft | 397 kts | 223° |
| 2026-05-03 21:54 | 24.83982 | -80.56843 | 20014 ft | 392 kts | 233° |
| 2026-05-03 21:54 | 24.82581 | -80.59340 | 19798 ft | 377 kts | 246° |
| 2026-05-03 21:55 | 24.81514 | -80.61922 | 19568 ft | 365 kts | 240° |
| 2026-05-03 21:55 | 24.79888 | -80.64046 | 19336 ft | 366 kts | 221° |
| 2026-05-03 21:55 | 24.77660 | -80.65407 | 19104 ft | 372 kts | 202° |
| 2026-05-03 21:55 | 24.75088 | -80.65832 | 18893 ft | 380 kts | 182° |
| 2026-05-03 21:56 | 24.72448 | -80.65408 | 18663 ft | 385 kts | 173° |
| 2026-05-03 21:56 | 24.69856 | -80.64834 | 18426 ft | 385 kts | 173° |
| 2026-05-03 21:56 | 24.67235 | -80.64251 | 18137 ft | 384 kts | 173° |
| 2026-05-03 21:56 | 24.64622 | -80.63674 | 17829 ft | 382 kts | 173° |
| 2026-05-03 21:57 | 24.62022 | -80.63102 | 17522 ft | 380 kts | 173° |
| 2026-05-03 21:57 | 24.59432 | -80.62534 | 17219 ft | 379 kts | 173° |
| 2026-05-03 21:57 | 24.56856 | -80.61973 | 16916 ft | 377 kts | 173° |
| 2026-05-03 21:57 | 24.54286 | -80.61416 | 16621 ft | 375 kts | 173° |
| 2026-05-03 21:58 | 24.51728 | -80.60867 | 16327 ft | 374 kts | 173° |
| 2026-05-03 21:58 | 24.49183 | -80.60323 | 16026 ft | 372 kts | 173° |
| 2026-05-03 21:58 | 24.46678 | -80.59791 | 15750 ft | 371 kts | 173° |
| 2026-05-03 21:58 | 24.44149 | -80.59257 | 15464 ft | 369 kts | 173° |
| 2026-05-03 21:59 | 24.41627 | -80.58752 | 15180 ft | 366 kts | 176° |
| 2026-05-03 21:59 | 24.39121 | -80.58815 | 14896 ft | 358 kts | 194° |
| 2026-05-03 21:59 | 24.36803 | -80.59698 | 14618 ft | 350 kts | 211° |
| 2026-05-03 21:59 | 24.35479 | -80.60681 | 14437 ft | 346 kts | 223° |
| 2026-05-03 22:00 | 24.33514 | -80.63419 | 14064 ft | 342 kts | 245° |
| 2026-05-03 22:00 | 24.32786 | -80.65884 | 13796 ft | 340 kts | 261° |
| 2026-05-03 22:00 | 24.32753 | -80.68469 | 13490 ft | 341 kts | 275° |
| 2026-05-03 22:00 | 24.33036 | -80.71046 | 13184 ft | 340 kts | 276° |
| 2026-05-03 22:01 | 24.33318 | -80.73612 | 12956 ft | 339 kts | 276° |
| 2026-05-03 22:01 | 24.33597 | -80.76175 | 12753 ft | 338 kts | 276° |
| 2026-05-03 22:01 | 24.33867 | -80.78701 | 12556 ft | 337 kts | 275° |
| 2026-05-03 22:01 | 24.34137 | -80.81253 | 12350 ft | 337 kts | 275° |
| 2026-05-03 22:02 | 24.34407 | -80.83799 | 12158 ft | 336 kts | 276° |
| 2026-05-03 22:02 | 24.34677 | -80.86337 | 11966 ft | 335 kts | 276° |
| 2026-05-03 22:02 | 24.34949 | -80.88866 | 11771 ft | 334 kts | 276° |
| 2026-05-03 22:02 | 24.35221 | -80.91387 | 11578 ft | 333 kts | 276° |
| 2026-05-03 22:03 | 24.35489 | -80.93900 | 11384 ft | 331 kts | 276° |
| 2026-05-03 22:03 | 24.35753 | -80.96404 | 11197 ft | 330 kts | 276° |
| 2026-05-03 22:03 | 24.36016 | -80.98901 | 11003 ft | 329 kts | 276° |
| 2026-05-03 22:03 | 24.36281 | -81.01390 | 10814 ft | 328 kts | 276° |
| 2026-05-03 22:04 | 24.36540 | -81.03842 | 10631 ft | 328 kts | 276° |
| 2026-05-03 22:04 | 24.36801 | -81.06324 | 10442 ft | 327 kts | 276° |
| 2026-05-03 22:04 | 24.37062 | -81.08798 | 10257 ft | 326 kts | 276° |
| 2026-05-03 22:04 | 24.37323 | -81.11264 | 10090 ft | 325 kts | 276° |
| 2026-05-03 22:05 | 24.37582 | -81.13711 | 9987 ft | 317 kts | 276° |
| 2026-05-03 22:05 | 24.37829 | -81.16040 | 9995 ft | 299 kts | 276° |
| 2026-05-03 22:05 | 24.38060 | -81.18242 | 10003 ft | 283 kts | 276° |
| 2026-05-03 22:05 | 24.38283 | -81.20368 | 10003 ft | 279 kts | 276° |
| 2026-05-03 22:06 | 24.38504 | -81.22475 | 10003 ft | 278 kts | 276° |
| 2026-05-03 22:06 | 24.38724 | -81.24584 | 10005 ft | 278 kts | 276° |
| 2026-05-03 22:06 | 24.38943 | -81.26690 | 10000 ft | 278 kts | 276° |
| 2026-05-03 22:06 | 24.39162 | -81.28797 | 10011 ft | 278 kts | 276° |
| 2026-05-03 22:07 | 24.39378 | -81.30876 | 10007 ft | 278 kts | 276° |
| 2026-05-03 22:07 | 24.39596 | -81.32981 | 10005 ft | 278 kts | 276° |
| 2026-05-03 22:07 | 24.39814 | -81.35088 | 10002 ft | 278 kts | 276° |
| 2026-05-03 22:07 | 24.40029 | -81.37194 | 10003 ft | 278 kts | 276° |
| 2026-05-03 22:08 | 24.40246 | -81.39300 | 10007 ft | 278 kts | 276° |
| 2026-05-03 22:08 | 24.40463 | -81.41407 | 10008 ft | 278 kts | 276° |
| 2026-05-03 22:08 | 24.40680 | -81.43514 | 10008 ft | 278 kts | 276° |
| 2026-05-03 22:08 | 24.40896 | -81.45619 | 10007 ft | 278 kts | 276° |
| 2026-05-03 22:09 | 24.41110 | -81.47723 | 10008 ft | 278 kts | 276° |
| 2026-05-03 22:09 | 24.41327 | -81.49830 | 10004 ft | 278 kts | 276° |
| 2026-05-03 22:09 | 24.41547 | -81.51934 | 9998 ft | 278 kts | 276° |
| 2026-05-03 22:10 | 24.41980 | -81.56112 | 9998 ft | 278 kts | 276° |
| 2026-05-03 22:10 | 24.42195 | -81.58226 | 9739 ft | 281 kts | 276° |
| 2026-05-03 22:10 | 24.42411 | -81.60359 | 9361 ft | 280 kts | 275° |
| 2026-05-03 22:10 | 24.42626 | -81.62481 | 8915 ft | 281 kts | 275° |
| 2026-05-03 22:11 | 24.42840 | -81.64589 | 8571 ft | 275 kts | 275° |
| 2026-05-03 22:11 | 24.43051 | -81.66664 | 7938 ft | 272 kts | 275° |
| 2026-05-03 22:11 | 24.43260 | -81.68722 | 7473 ft | 273 kts | 275° |
| 2026-05-03 22:11 | 24.43471 | -81.70800 | 7090 ft | 274 kts | 275° |
| 2026-05-03 22:12 | 24.43681 | -81.72861 | 6810 ft | 270 kts | 275° |
| 2026-05-03 22:12 | 24.43890 | -81.74894 | 6241 ft | 268 kts | 275° |
| 2026-05-03 22:12 | 24.44093 | -81.76909 | 5713 ft | 263 kts | 274° |
| 2026-05-03 22:12 | 24.44289 | -81.78866 | 5267 ft | 260 kts | 274° |
| 2026-05-03 22:13 | 24.44487 | -81.80839 | 4867 ft | 262 kts | 274° |
| 2026-05-03 22:13 | 24.44685 | -81.82835 | 4464 ft | 264 kts | 274° |
| 2026-05-03 22:13 | 24.44885 | -81.84822 | 4112 ft | 262 kts | 275° |
| 2026-05-03 22:13 | 24.45083 | -81.86820 | 3794 ft | 261 kts | 275° |
| 2026-05-03 22:14 | 24.45278 | -81.88796 | 3485 ft | 259 kts | 275° |
| 2026-05-03 22:14 | 24.45473 | -81.90740 | 3328 ft | 253 kts | 275° |
| 2026-05-03 22:14 | 24.45663 | -81.92621 | 3211 ft | 243 kts | 275° |
| 2026-05-03 22:14 | 24.45787 | -81.93824 | 3142 ft | 236 kts | 276° |
| 2026-05-03 22:15 | 24.46327 | -81.95469 | 3044 ft | 228 kts | 305° |
| 2026-05-03 22:15 | 24.47550 | -81.96504 | 2925 ft | 223 kts | 339° |
| 2026-05-03 22:15 | 24.49060 | -81.96699 | 2804 ft | 216 kts | 358° |
| 2026-05-03 22:15 | 24.51005 | -81.96705 | 2633 ft | 206 kts | 356° |
| 2026-05-03 22:16 | 24.52405 | -81.96722 | 2535 ft | 198 kts | 358° |
| 2026-05-03 22:16 | 24.53329 | -81.96711 | 2452 ft | 196 kts | 4° |
| 2026-05-03 22:16 | 24.54576 | -81.96139 | 2320 ft | 198 kts | 39° |
| 2026-05-03 22:16 | 24.55319 | -81.94913 | 2217 ft | 197 kts | 74° |
| 2026-05-03 22:17 | 24.55436 | -81.93430 | 2111 ft | 195 kts | 91° |
| 2026-05-03 22:17 | 24.55449 | -81.91930 | 2005 ft | 196 kts | 90° |
| 2026-05-03 22:17 | 24.55462 | -81.90427 | 1896 ft | 197 kts | 90° |
| 2026-05-03 22:17 | 24.55476 | -81.88933 | 1790 ft | 195 kts | 89° |
| 2026-05-03 22:18 | 24.55490 | -81.87451 | 1680 ft | 193 kts | 90° |
| 2026-05-03 22:18 | 24.55504 | -81.85980 | 1576 ft | 192 kts | 89° |
| 2026-05-03 22:18 | 24.55520 | -81.84521 | 1445 ft | 186 kts | 89° |
| 2026-05-03 22:18 | 24.55534 | -81.83151 | 1203 ft | 170 kts | 89° |
| 2026-05-03 22:19 | 24.55546 | -81.81941 | 980 ft | 150 kts | 89° |
| 2026-05-03 22:19 | 24.55557 | -81.80830 | 791 ft | 142 kts | 88° |
| 2026-05-03 22:19 | 24.55563 | -81.79760 | 590 ft | 138 kts | 88° |
| 2026-05-03 22:19 | 24.55580 | -81.78720 | 400 ft | 134 kts | 84° |
| 2026-05-03 22:20 | 24.55597 | -81.77688 | 238 ft | 136 kts | 83° |
| 2026-05-03 22:20 | 24.55602 | -81.76664 | 50 ft | 132 kts | 85° |
| 2026-05-03 22:20 | 24.55618 | -81.75807 | 13 ft | 77 kts | 91° |